财新传媒
位置:博客 > 陈建国 > 这个737落地多少个G:这不是落在跑道上,这就是摔在跑道上

这个737落地多少个G:这不是落在跑道上,这就是摔在跑道上

 
昨天,一架注册号为G-JMCY的波音737-400型飞机,已经是改装为货机了。
 
 
在执行英国East Midlands到Exeter的航班时,飞机发生重着陆,有多重不知道,但是结果看起来基本上飞机是报废了。
 
 
这架飞机和印尼失事的那架飞机差不多老了,都是1994年出厂的,都有26年机龄了。
 
有人说这不是重着陆,这是摔到跑道上了。
 
飞机机内也变形了,导致机内货板都无法移动。737货机上都是货板,一板一板的从前面的货舱门装进去,沿地板推到后面;卸的时候一板一板卸出来。
 
当时的天气也属于正常的天气,只不过是凌晨2点多,有点小雨,是不是飞行员疲劳再加上小雨,产生了视觉错误?
 
EGTE 190220Z 23010KT 9000 -RA SCT012 BKN040 12/10 Q1009=
 
这个落地已经超出正常着陆了,所以也有人怀疑是不是本身飞机就有结构缺陷,毕竟26年的老飞机了。
 
我们坐等调查报告出来,看看到底是什么原因,飞行员操纵问题,还是飞机的结构有了问题。



推荐 4